createdAt,value
2022-11-18T00:01:32.271Z,9.39
2022-11-18T00:04:01.127Z,9.40
2022-11-18T00:06:31.193Z,9.40
2022-11-18T00:09:02.104Z,9.42
2022-11-18T00:11:48.756Z,9.42
2022-11-18T00:14:20.579Z,9.42
2022-11-18T00:16:51.171Z,9.41
2022-11-18T00:19:20.438Z,9.41
2022-11-18T00:21:49.452Z,9.41
2022-11-18T00:24:19.512Z,9.40
2022-11-18T00:26:48.500Z,9.40
2022-11-18T00:29:18.099Z,9.40
2022-11-18T00:31:46.793Z,9.38
2022-11-18T00:34:17.647Z,9.38
2022-11-18T00:36:46.726Z,9.38
2022-11-18T00:39:19.656Z,9.38
2022-11-18T00:42:12.186Z,9.38
2022-11-18T00:44:40.936Z,9.36
2022-11-18T00:47:09.444Z,9.34
2022-11-18T00:49:37.703Z,9.32
2022-11-18T00:52:06.568Z,9.31
2022-11-18T00:54:36.196Z,9.29
2022-11-18T00:57:05.357Z,9.29
2022-11-18T00:59:34.021Z,9.28
2022-11-18T01:02:02.246Z,9.28
2022-11-18T01:04:30.964Z,9.25
2022-11-18T01:06:59.215Z,9.26
2022-11-18T01:09:27.720Z,9.26
2022-11-18T01:12:14.837Z,9.26
2022-11-18T01:14:43.544Z,9.25
2022-11-18T01:17:11.839Z,9.24
2022-11-18T01:19:40.495Z,9.23
2022-11-18T01:22:09.043Z,9.22
2022-11-18T01:24:37.728Z,9.22
2022-11-18T01:27:07.624Z,9.21
2022-11-18T01:29:37.151Z,9.20
2022-11-18T01:32:23.896Z,9.22
2022-11-18T01:34:53.376Z,9.21
2022-11-18T01:37:21.943Z,9.22
2022-11-18T01:39:50.572Z,9.22
2022-11-18T01:42:20.205Z,9.21
2022-11-18T01:45:02.119Z,9.21
2022-11-18T01:47:36.333Z,9.22
2022-11-18T01:50:06.443Z,9.22
2022-11-18T01:52:36.386Z,9.23
2022-11-18T01:55:11.873Z,9.23
2022-11-18T01:57:43.240Z,9.23
2022-11-18T02:00:13.816Z,9.24
2022-11-18T02:02:42.876Z,9.25
2022-11-18T02:05:12.780Z,9.25
2022-11-18T02:07:44.476Z,9.26
2022-11-18T02:10:25.060Z,9.24
2022-11-18T02:12:56.398Z,9.25
2022-11-18T02:15:39.919Z,9.26
2022-11-18T02:18:19.333Z,9.24
2022-11-18T02:20:51.268Z,9.24
2022-11-18T02:24:02.832Z,9.21
2022-11-18T02:27:18.795Z,9.20
2022-11-18T02:29:56.622Z,9.18
2022-11-18T02:32:31.365Z,9.17
2022-11-18T02:35:04.596Z,9.14
2022-11-18T02:37:38.909Z,9.13
2022-11-18T02:40:15.148Z,9.14
2022-11-18T02:42:46.728Z,9.17
2022-11-18T02:45:20.063Z,9.16
2022-11-18T02:47:51.219Z,9.14
2022-11-18T02:50:25.508Z,9.14
2022-11-18T02:52:59.239Z,9.12
2022-11-18T02:55:31.640Z,9.12
2022-11-18T02:58:00.374Z,9.13
2022-11-18T03:00:30.018Z,9.14
2022-11-18T03:02:58.572Z,9.14
2022-11-18T03:05:37.247Z,9.13
2022-11-18T03:08:13.948Z,9.12
2022-11-18T03:10:50.830Z,9.12
2022-11-18T03:13:27.170Z,9.11
2022-11-18T03:16:04.109Z,9.11
2022-11-18T03:18:43.616Z,9.10
2022-11-18T03:21:18.360Z,9.10
2022-11-18T03:23:52.912Z,9.07
2022-11-18T03:26:26.552Z,9.07
2022-11-18T03:29:00.763Z,9.07
2022-11-18T03:31:37.348Z,9.07
2022-11-18T03:34:12.037Z,9.08
2022-11-18T03:36:51.275Z,9.08
2022-11-18T03:39:23.167Z,9.08
2022-11-18T03:41:57.834Z,9.08
2022-11-18T03:44:32.536Z,9.09
2022-11-18T03:47:05.577Z,9.07
2022-11-18T03:49:41.653Z,9.09
2022-11-18T03:52:16.774Z,9.12
2022-11-18T03:54:47.952Z,9.13
2022-11-18T03:57:22.641Z,9.17
2022-11-18T03:59:55.055Z,9.13
2022-11-18T04:02:27.061Z,9.15
2022-11-18T04:04:58.966Z,9.17
2022-11-18T04:07:34.077Z,9.20
2022-11-18T04:10:09.963Z,9.22
2022-11-18T04:12:46.474Z,9.22
2022-11-18T04:15:15.368Z,9.24
2022-11-18T04:17:45.033Z,9.25
2022-11-18T04:20:18.603Z,9.23
2022-11-18T04:22:47.540Z,9.22
2022-11-18T04:25:16.483Z,9.23
2022-11-18T04:27:45.172Z,9.22
2022-11-18T04:30:14.656Z,9.21
2022-11-18T04:32:44.629Z,9.21
2022-11-18T04:35:13.187Z,9.20
2022-11-18T04:37:41.737Z,9.20
2022-11-18T04:40:11.659Z,9.19
2022-11-18T04:42:40.240Z,9.17
2022-11-18T04:45:10.593Z,9.16
2022-11-18T04:47:39.562Z,9.14
2022-11-18T04:50:10.327Z,9.13
2022-11-18T04:52:38.932Z,9.11
2022-11-18T04:55:08.023Z,9.12
2022-11-18T04:57:36.579Z,9.11
2022-11-18T05:00:07.069Z,9.10
2022-11-18T05:02:35.373Z,9.10
2022-11-18T05:05:04.131Z,9.10
2022-11-18T05:07:33.822Z,9.12
2022-11-18T05:10:02.942Z,9.12
2022-11-18T05:12:48.925Z,9.12
2022-11-18T05:15:18.033Z,9.12
2022-11-18T05:17:46.683Z,9.13
2022-11-18T05:20:15.319Z,9.16
2022-11-18T05:22:44.913Z,9.16
2022-11-18T05:25:13.178Z,9.18
2022-11-18T05:27:41.683Z,9.17
2022-11-18T05:30:11.826Z,9.18
2022-11-18T05:32:40.438Z,9.17
2022-11-18T05:35:09.732Z,9.16
2022-11-18T05:37:38.292Z,9.16
2022-11-18T05:40:10.626Z,9.14
2022-11-18T05:42:59.191Z,9.12
2022-11-18T05:45:27.740Z,9.10
2022-11-18T05:48:03.981Z,9.09
2022-11-18T05:50:34.014Z,9.06
2022-11-18T05:53:03.504Z,9.04
2022-11-18T05:55:40.758Z,9.02
2022-11-18T05:58:11.628Z,9.01
2022-11-18T06:00:40.353Z,9.00
2022-11-18T06:03:14.384Z,8.99
2022-11-18T06:05:43.332Z,8.99
2022-11-18T06:08:13.513Z,8.98
2022-11-18T06:10:44.977Z,8.97
2022-11-18T06:13:21.378Z,8.97
2022-11-18T06:15:50.286Z,8.97
2022-11-18T06:18:23.287Z,8.95
2022-11-18T06:20:54.084Z,8.92
2022-11-18T06:23:22.895Z,8.89
2022-11-18T06:25:52.720Z,8.86
2022-11-18T06:28:22.615Z,8.81
2022-11-18T06:30:51.272Z,8.76
2022-11-18T06:33:19.869Z,8.72
2022-11-18T06:35:48.392Z,8.67
2022-11-18T06:38:16.877Z,8.62
2022-11-18T06:40:45.528Z,8.58
2022-11-18T06:43:32.912Z,8.55
2022-11-18T06:46:20.294Z,8.52
2022-11-18T06:48:49.151Z,8.51
2022-11-18T06:51:17.692Z,8.51
2022-11-18T06:53:46.540Z,8.52
2022-11-18T06:56:17.178Z,8.52
2022-11-18T06:58:47.633Z,8.55
2022-11-18T07:01:18.691Z,8.57
2022-11-18T07:03:48.162Z,8.55
2022-11-18T07:06:18.704Z,8.56
2022-11-18T07:08:47.259Z,8.55
2022-11-18T07:11:18.545Z,8.56
2022-11-18T07:13:48.683Z,8.57
2022-11-18T07:16:19.232Z,8.56
2022-11-18T07:18:49.453Z,8.53
2022-11-18T07:21:19.981Z,8.52
2022-11-18T07:23:49.005Z,8.50
2022-11-18T07:26:17.747Z,8.49
2022-11-18T07:28:47.872Z,8.48
2022-11-18T07:31:18.308Z,8.47
2022-11-18T07:33:48.340Z,8.48
2022-11-18T07:36:19.309Z,8.47
2022-11-18T07:38:47.991Z,8.48
2022-11-18T07:41:18.548Z,8.49
2022-11-18T07:43:48.634Z,8.47
2022-11-18T07:46:19.834Z,8.45
2022-11-18T07:48:50.410Z,8.45
2022-11-18T07:51:20.745Z,8.45
2022-11-18T07:53:49.120Z,8.44
2022-11-18T07:56:18.354Z,8.44
2022-11-18T07:58:48.491Z,8.46
2022-11-18T08:01:19.610Z,8.48
2022-11-18T08:03:48.904Z,8.45
2022-11-18T08:06:20.107Z,8.48
2022-11-18T08:08:49.170Z,8.48
2022-11-18T08:11:22.905Z,8.50
2022-11-18T08:13:53.083Z,8.50
2022-11-18T08:16:23.571Z,8.49
2022-11-18T08:18:53.176Z,8.52
2022-11-18T08:21:23.836Z,8.51
2022-11-18T08:23:53.031Z,8.51
2022-11-18T08:26:22.095Z,8.52
2022-11-18T08:28:52.387Z,8.52
2022-11-18T08:31:24.365Z,8.54
2022-11-18T08:33:56.966Z,8.51
2022-11-18T08:36:28.987Z,8.51
2022-11-18T08:38:57.963Z,8.51
2022-11-18T08:41:32.929Z,8.51
2022-11-18T08:44:03.804Z,8.51
2022-11-18T08:46:32.431Z,8.51
2022-11-18T08:49:01.495Z,8.52
2022-11-18T08:51:30.440Z,8.55
2022-11-18T08:53:59.106Z,8.57
2022-11-18T08:56:27.728Z,8.56
2022-11-18T08:58:57.054Z,8.56
2022-11-18T09:01:27.315Z,8.56
2022-11-18T09:03:57.613Z,8.58
2022-11-18T09:06:26.604Z,8.62
2022-11-18T09:08:55.425Z,8.65
2022-11-18T09:11:25.800Z,8.71
2022-11-18T09:16:45.809Z,8.87
2022-11-18T09:19:45.580Z,8.90
2022-11-18T09:22:04.893Z,8.92
2022-11-18T09:24:34.015Z,8.97
2022-11-18T09:27:05.263Z,9.03
2022-11-18T09:29:34.195Z,9.07
2022-11-18T09:32:03.820Z,9.09
2022-11-18T09:34:32.322Z,9.10
2022-11-18T09:37:00.857Z,9.13
2022-11-18T09:39:29.402Z,9.17
2022-11-18T09:42:15.842Z,9.20
2022-11-18T09:45:00.956Z,9.22
2022-11-18T09:47:33.304Z,9.23
2022-11-18T09:50:26.852Z,9.25
2022-11-18T09:53:07.725Z,9.27
2022-11-18T09:55:39.929Z,9.29
2022-11-18T09:58:08.873Z,9.31
2022-11-18T10:00:37.161Z,9.33
2022-11-18T10:03:12.712Z,9.36
2022-11-18T10:05:49.438Z,9.37
2022-11-18T10:08:28.942Z,9.37
2022-11-18T10:11:08.481Z,9.37
2022-11-18T10:13:52.497Z,9.41
2022-11-18T10:16:37.479Z,9.47
2022-11-18T10:19:23.553Z,9.51
2022-11-18T10:22:16.779Z,9.54
2022-11-18T10:24:52.428Z,9.57
2022-11-18T10:27:21.729Z,9.61
2022-11-18T10:29:54.988Z,9.66
2022-11-18T10:32:23.636Z,9.70
2022-11-18T10:34:56.593Z,9.74
2022-11-18T10:37:45.747Z,9.77
2022-11-18T10:40:27.805Z,9.77
2022-11-18T10:42:56.600Z,9.78
2022-11-18T10:45:28.731Z,9.80
2022-11-18T10:48:03.842Z,9.82
2022-11-18T10:50:39.191Z,9.85
2022-11-18T10:53:31.082Z,9.91
2022-11-18T10:56:01.058Z,9.98
2022-11-18T10:58:31.945Z,10.02
2022-11-18T11:01:08.164Z,10.06
2022-11-18T11:03:39.018Z,10.12
2022-11-18T11:06:38.092Z,10.15
2022-11-18T11:09:11.345Z,10.19
2022-11-18T11:11:43.491Z,10.17
2022-11-18T11:14:24.763Z,10.16
2022-11-18T11:17:02.697Z,10.14
2022-11-18T11:19:41.893Z,10.13
2022-11-18T11:22:13.271Z,10.15
2022-11-18T11:24:41.935Z,10.19
2022-11-18T11:30:45.291Z,10.36
2022-11-18T11:33:31.043Z,10.45
2022-11-18T11:36:21.693Z,10.56
2022-11-18T11:39:04.846Z,10.65
2022-11-18T11:41:46.515Z,10.75
2022-11-18T11:44:33.121Z,10.85
2022-11-18T11:47:36.469Z,10.95
2022-11-18T11:50:17.909Z,11.03
2022-11-18T11:53:02.954Z,11.08
2022-11-18T11:55:50.779Z,11.11
2022-11-18T11:58:38.140Z,11.13
2022-11-18T12:01:20.135Z,11.16
2022-11-18T12:03:53.160Z,11.16
2022-11-18T12:06:21.730Z,11.17
2022-11-18T12:09:04.970Z,11.16
2022-11-18T12:11:42.348Z,11.13
2022-11-18T12:14:27.307Z,11.13
2022-11-18T12:17:06.329Z,11.13
2022-11-18T12:19:40.238Z,11.15
2022-11-18T12:22:08.847Z,11.17
2022-11-18T12:24:42.351Z,11.16
2022-11-18T12:27:38.650Z,11.15
2022-11-18T12:30:19.653Z,10.83
2022-11-18T12:32:48.395Z,10.09
2022-11-18T12:35:27.902Z,9.59
2022-11-18T12:38:03.182Z,9.30
2022-11-18T12:40:47.403Z,9.16
2022-11-18T12:44:06.239Z,9.09
2022-11-18T12:46:56.799Z,9.19
2022-11-18T12:50:12.606Z,9.29
2022-11-18T12:52:53.452Z,9.37
2022-11-18T12:55:32.963Z,9.51
2022-11-18T12:58:01.582Z,9.61
2022-11-18T13:00:52.389Z,9.69
2022-11-18T13:03:28.705Z,9.76
2022-11-18T13:06:13.907Z,9.85
2022-11-18T13:08:42.772Z,9.90
2022-11-18T13:11:34.520Z,10.00
2022-11-18T13:14:23.847Z,10.12
2022-11-18T13:17:11.154Z,10.19
2022-11-18T13:19:39.828Z,10.24
2022-11-18T13:22:36.868Z,10.31
2022-11-18T13:25:05.459Z,10.37
2022-11-18T13:27:50.984Z,10.42
2022-11-18T13:30:19.909Z,10.50
2022-11-18T13:32:50.731Z,10.85
2022-11-18T13:35:22.224Z,11.37
2022-11-18T13:37:53.745Z,11.69
2022-11-18T13:40:24.693Z,11.95
2022-11-18T13:42:53.114Z,12.02
2022-11-18T13:45:24.367Z,12.08
2022-11-18T13:48:00.663Z,12.18
2022-11-18T13:50:34.511Z,12.20
2022-11-18T13:53:15.073Z,12.27
2022-11-18T13:55:50.844Z,12.43
2022-11-18T13:58:55.724Z,12.59
2022-11-18T14:01:25.908Z,12.62
2022-11-18T14:04:00.543Z,12.46
2022-11-18T14:06:30.948Z,12.33
2022-11-18T14:09:19.732Z,12.17
2022-11-18T14:12:01.597Z,12.15
2022-11-18T14:14:34.301Z,12.25
2022-11-18T14:17:18.215Z,12.30
2022-11-18T14:19:49.891Z,12.33
2022-11-18T14:22:21.195Z,12.29
2022-11-18T14:24:57.684Z,12.17
2022-11-18T14:27:40.797Z,12.03
2022-11-18T14:30:36.579Z,11.87
2022-11-18T14:33:17.983Z,11.74
2022-11-18T14:35:52.175Z,11.62
2022-11-18T14:41:16.313Z,11.36
2022-11-18T14:43:45.978Z,11.25
2022-11-18T14:46:19.574Z,11.13
2022-11-18T14:48:48.458Z,11.01
2022-11-18T14:51:18.460Z,10.91
2022-11-18T14:53:46.991Z,10.82
2022-11-18T14:56:21.196Z,10.74
2022-11-18T14:58:50.074Z,10.64
2022-11-18T15:01:18.728Z,10.56
2022-11-18T15:03:47.625Z,10.48
2022-11-18T15:06:20.138Z,10.41
2022-11-18T15:08:50.958Z,10.34
2022-11-18T15:11:20.100Z,10.28
2022-11-18T15:13:50.317Z,10.22
2022-11-18T15:16:21.552Z,10.16
2022-11-18T15:18:52.167Z,10.11
2022-11-18T15:21:22.169Z,10.05
2022-11-18T15:23:50.820Z,10.00
2022-11-18T15:26:22.809Z,9.94
2022-11-18T15:28:54.039Z,9.86
2022-11-18T15:31:23.815Z,9.82
2022-11-18T15:33:52.934Z,9.75
2022-11-18T15:36:25.091Z,9.72
2022-11-18T15:38:55.156Z,9.67
2022-11-18T15:41:26.399Z,9.65
2022-11-18T15:43:56.762Z,9.61
2022-11-18T15:46:27.497Z,9.60
2022-11-18T15:48:57.781Z,9.59
2022-11-18T15:51:30.037Z,9.58
2022-11-18T15:53:59.056Z,9.58
2022-11-18T15:56:30.039Z,9.55
2022-11-18T15:59:00.637Z,9.55
2022-11-18T16:01:32.033Z,9.53
2022-11-18T16:04:00.749Z,9.51
2022-11-18T16:06:30.339Z,9.50
2022-11-18T16:09:00.527Z,9.48
2022-11-18T16:11:47.697Z,9.47
2022-11-18T16:14:18.654Z,9.44
2022-11-18T16:16:50.019Z,9.42
2022-11-18T16:19:21.028Z,9.43
2022-11-18T16:21:53.355Z,9.42
2022-11-18T16:24:23.542Z,9.40
2022-11-18T16:26:52.061Z,9.40
2022-11-18T16:29:21.125Z,9.37
2022-11-18T16:31:52.399Z,9.35
2022-11-18T16:34:22.994Z,9.33
2022-11-18T16:36:54.669Z,9.33
2022-11-18T16:39:25.714Z,9.32
2022-11-18T16:41:56.995Z,9.30
2022-11-18T16:44:28.202Z,9.29
2022-11-18T16:46:58.110Z,9.28
2022-11-18T16:49:28.537Z,9.27
2022-11-18T16:51:58.929Z,9.26
2022-11-18T16:54:28.705Z,9.25
2022-11-18T16:57:00.031Z,9.25
2022-11-18T16:59:30.261Z,9.25
2022-11-18T17:02:00.930Z,9.27
2022-11-18T17:04:30.820Z,9.27
2022-11-18T17:07:00.688Z,9.29
2022-11-18T17:09:29.411Z,9.30
2022-11-18T17:11:59.556Z,9.29
2022-11-18T17:14:29.903Z,9.28
2022-11-18T17:16:58.748Z,9.27
2022-11-18T17:19:27.224Z,9.27
2022-11-18T17:21:56.158Z,9.26
2022-11-18T17:24:27.018Z,9.25
2022-11-18T17:26:56.398Z,9.24
2022-11-18T17:29:24.592Z,9.23
2022-11-18T17:31:53.770Z,9.23
2022-11-18T17:34:22.442Z,9.23
2022-11-18T17:36:50.905Z,9.24
2022-11-18T17:39:20.780Z,9.23
2022-11-18T17:42:08.455Z,9.22
2022-11-18T17:44:37.192Z,9.23
2022-11-18T17:47:05.804Z,9.22
2022-11-18T17:49:34.461Z,9.21
2022-11-18T17:52:03.008Z,9.21
2022-11-18T17:54:31.217Z,9.20
2022-11-18T17:57:00.806Z,9.18
2022-11-18T17:59:29.369Z,9.17
2022-11-18T18:01:59.744Z,9.13
2022-11-18T18:04:29.066Z,9.10
2022-11-18T18:06:57.690Z,9.06
2022-11-18T18:09:30.439Z,9.02
2022-11-18T18:12:20.817Z,8.98
2022-11-18T18:14:48.393Z,8.91
2022-11-18T18:17:17.002Z,8.87
2022-11-18T18:19:45.322Z,8.84
2022-11-18T18:22:13.591Z,8.81
2022-11-18T18:24:42.154Z,8.78
2022-11-18T18:27:11.854Z,8.75
2022-11-18T18:29:40.367Z,8.73
2022-11-18T18:32:08.882Z,8.68
2022-11-18T18:34:37.171Z,8.66
2022-11-18T18:37:05.674Z,8.64
2022-11-18T18:39:34.162Z,8.63
2022-11-18T18:42:03.570Z,8.61
2022-11-18T18:44:47.100Z,8.59
2022-11-18T18:47:15.741Z,8.58
2022-11-18T18:49:44.214Z,8.57
2022-11-18T18:52:12.497Z,8.58
2022-11-18T18:54:40.710Z,8.59
2022-11-18T18:57:09.187Z,8.60
2022-11-18T18:59:39.110Z,8.59
2022-11-18T19:02:07.989Z,8.59
2022-11-18T19:04:36.637Z,8.61
2022-11-18T19:07:05.200Z,8.59
2022-11-18T19:09:36.343Z,8.60
2022-11-18T19:12:23.227Z,8.60
2022-11-18T19:14:53.240Z,8.61
2022-11-18T19:17:21.593Z,8.63
2022-11-18T19:20:07.543Z,8.64
2022-11-18T19:22:36.691Z,8.64
2022-11-18T19:25:05.660Z,8.65
2022-11-18T19:27:38.600Z,8.67
2022-11-18T19:30:11.078Z,8.67
2022-11-18T19:32:40.321Z,8.67
2022-11-18T19:35:10.764Z,8.68
2022-11-18T19:37:39.415Z,8.68
2022-11-18T19:40:10.480Z,8.69
2022-11-18T19:42:39.514Z,8.69
2022-11-18T19:45:10.722Z,8.69
2022-11-18T19:47:39.293Z,8.68
2022-11-18T19:50:08.393Z,8.69
2022-11-18T19:52:36.698Z,8.68
2022-11-18T19:55:05.686Z,8.69
2022-11-18T19:57:33.956Z,8.69
2022-11-18T20:00:03.455Z,8.68
2022-11-18T20:02:40.319Z,8.67
2022-11-18T20:05:26.534Z,8.64
2022-11-18T20:07:56.536Z,8.61
2022-11-18T20:10:25.018Z,8.59
2022-11-18T20:12:53.544Z,8.57
2022-11-18T20:15:22.025Z,8.53
2022-11-18T20:17:51.601Z,8.50
2022-11-18T20:20:20.265Z,8.47
2022-11-18T20:22:48.817Z,8.46
2022-11-18T20:25:17.383Z,8.45
2022-11-18T20:27:46.185Z,8.42
2022-11-18T20:30:15.059Z,8.41
2022-11-18T20:32:45.891Z,8.42
2022-11-18T20:35:16.041Z,8.41
2022-11-18T20:37:44.617Z,8.41
2022-11-18T20:40:13.579Z,8.41
2022-11-18T20:42:59.524Z,8.42
2022-11-18T20:45:28.109Z,8.42
2022-11-18T20:47:56.607Z,8.43
2022-11-18T20:50:26.225Z,8.44
2022-11-18T20:52:54.711Z,8.46
2022-11-18T20:55:23.255Z,8.47
2022-11-18T20:57:51.850Z,8.48
2022-11-18T21:00:20.767Z,8.47
2022-11-18T21:02:49.327Z,8.45
2022-11-18T21:05:18.020Z,8.45
2022-11-18T21:07:49.056Z,8.43
2022-11-18T21:10:18.344Z,8.41
2022-11-18T21:13:00.826Z,8.40
2022-11-18T21:15:29.458Z,8.39
2022-11-18T21:17:58.343Z,8.39
2022-11-18T21:20:44.045Z,8.37
2022-11-18T21:23:14.229Z,8.39
2022-11-18T21:25:43.203Z,8.40
2022-11-18T21:28:11.448Z,8.40
2022-11-18T21:30:40.333Z,8.41
2022-11-18T21:33:08.701Z,8.40
2022-11-18T21:35:37.416Z,8.41
2022-11-18T21:38:06.165Z,8.40
2022-11-18T21:40:35.770Z,8.39
2022-11-18T21:43:04.256Z,8.38
2022-11-18T21:45:33.019Z,8.35
2022-11-18T21:48:01.580Z,8.33
2022-11-18T21:50:30.086Z,8.30
2022-11-18T21:52:58.627Z,8.30
2022-11-18T21:55:27.160Z,8.29
2022-11-18T21:57:59.924Z,8.28
2022-11-18T22:00:31.506Z,8.24
2022-11-18T22:03:00.078Z,8.19
2022-11-18T22:05:29.351Z,8.16
2022-11-18T22:07:57.910Z,8.14
2022-11-18T22:10:26.555Z,8.14
2022-11-18T22:12:56.404Z,8.12
2022-11-18T22:15:25.121Z,8.15
2022-11-18T22:17:53.627Z,8.16
2022-11-18T22:20:22.195Z,8.19
2022-11-18T22:22:50.704Z,8.20
2022-11-18T22:25:19.306Z,8.22
2022-11-18T22:27:47.804Z,8.22
2022-11-18T22:30:18.008Z,8.22
2022-11-18T22:32:46.326Z,8.22
2022-11-18T22:35:14.906Z,8.22
2022-11-18T22:37:43.193Z,8.21
2022-11-18T22:40:13.258Z,8.21
2022-11-18T22:42:49.453Z,8.20
2022-11-18T22:45:19.247Z,8.20
2022-11-18T22:47:47.499Z,8.21
2022-11-18T22:50:16.461Z,8.22
2022-11-18T22:52:45.023Z,8.23
2022-11-18T22:55:13.626Z,8.21
2022-11-18T22:57:44.093Z,8.19
2022-11-18T23:00:14.548Z,8.17
2022-11-18T23:02:44.084Z,8.15
2022-11-18T23:05:12.625Z,8.13
2022-11-18T23:07:41.141Z,8.13
2022-11-18T23:10:10.384Z,8.12
2022-11-18T23:12:56.262Z,8.10
2022-11-18T23:15:24.531Z,8.09
2022-11-18T23:17:54.107Z,8.08
2022-11-18T23:20:22.642Z,8.08
2022-11-18T23:22:50.987Z,8.08
2022-11-18T23:25:19.616Z,8.09
2022-11-18T23:27:51.668Z,8.09
2022-11-18T23:30:23.306Z,8.11
2022-11-18T23:32:55.519Z,8.12
2022-11-18T23:35:24.484Z,8.14
2022-11-18T23:37:53.916Z,8.15
2022-11-18T23:40:22.551Z,8.19
2022-11-18T23:42:51.096Z,8.20
2022-11-18T23:45:19.702Z,8.22
2022-11-18T23:47:48.259Z,8.23
2022-11-18T23:50:18.246Z,8.22
2022-11-18T23:52:46.749Z,8.23
2022-11-18T23:55:15.284Z,8.24
2022-11-18T23:57:43.612Z,8.23
